sensor_id;sensor_type;location;lat;lon;timestamp;pressure;altitude;pressure_sealevel;temperature;humidity
36378;BME280;22402;42.746;23.606;2024-02-04T00:01:15;93804.91;;;2.03;100.00
36378;BME280;22402;42.746;23.606;2024-02-04T00:03:40;93817.41;;;2.10;100.00
36378;BME280;22402;42.746;23.606;2024-02-04T00:06:06;93809.78;;;2.08;100.00
36378;BME280;22402;42.746;23.606;2024-02-04T00:08:32;93768.69;;;1.76;100.00
36378;BME280;22402;42.746;23.606;2024-02-04T00:10:57;93834.00;;;2.20;100.00
36378;BME280;22402;42.746;23.606;2024-02-04T00:13:23;93822.97;;;2.18;100.00
36378;BME280;22402;42.746;23.606;2024-02-04T00:15:48;93815.91;;;2.21;100.00
36378;BME280;22402;42.746;23.606;2024-02-04T00:18:14;93818.97;;;2.28;100.00
36378;BME280;22402;42.746;23.606;2024-02-04T00:20:42;93811.81;;;2.33;100.00
36378;BME280;22402;42.746;23.606;2024-02-04T00:23:07;93825.28;;;2.53;100.00
36378;BME280;22402;42.746;23.606;2024-02-04T00:25:36;93795.50;;;2.48;100.00
36378;BME280;22402;42.746;23.606;2024-02-04T00:28:01;93814.97;;;2.68;100.00
36378;BME280;22402;42.746;23.606;2024-02-04T00:30:27;93798.69;;;2.68;100.00
36378;BME280;22402;42.746;23.606;2024-02-04T00:32:52;93820.81;;;2.86;100.00
36378;BME280;22402;42.746;23.606;2024-02-04T00:35:18;93816.03;;;2.94;100.00
36378;BME280;22402;42.746;23.606;2024-02-04T00:37:43;93805.38;;;3.01;100.00
36378;BME280;22402;42.746;23.606;2024-02-04T00:40:10;93804.16;;;3.06;100.00
36378;BME280;22402;42.746;23.606;2024-02-04T00:42:35;93807.28;;;3.11;100.00
36378;BME280;22402;42.746;23.606;2024-02-04T00:45:01;93799.84;;;3.07;100.00
36378;BME280;22402;42.746;23.606;2024-02-04T00:47:26;93808.59;;;3.18;100.00
36378;BME280;22402;42.746;23.606;2024-02-04T00:49:52;93803.28;;;3.22;100.00
36378;BME280;22402;42.746;23.606;2024-02-04T00:52:17;93817.53;;;3.27;100.00
36378;BME280;22402;42.746;23.606;2024-02-04T00:54:43;93817.53;;;3.27;100.00
36378;BME280;22402;42.746;23.606;2024-02-04T00:57:09;93809.13;;;3.24;100.00
36378;BME280;22402;42.746;23.606;2024-02-04T00:59:34;93812.19;;;3.30;100.00
36378;BME280;22402;42.746;23.606;2024-02-04T01:02:00;93810.53;;;3.29;100.00
36378;BME280;22402;42.746;23.606;2024-02-04T01:04:25;93815.88;;;3.40;100.00
36378;BME280;22402;42.746;23.606;2024-02-04T01:06:51;93801.53;;;3.36;100.00
36378;BME280;22402;42.746;23.606;2024-02-04T01:09:16;93811.84;;;3.36;100.00
36378;BME280;22402;42.746;23.606;2024-02-04T01:11:42;93807.19;;;3.41;100.00
36378;BME280;22402;42.746;23.606;2024-02-04T01:14:07;93800.59;;;3.37;100.00
36378;BME280;22402;42.746;23.606;2024-02-04T01:16:33;93823.97;;;3.49;100.00
36378;BME280;22402;42.746;23.606;2024-02-04T01:19:01;93806.69;;;3.36;100.00
36378;BME280;22402;42.746;23.606;2024-02-04T01:21:27;93806.88;;;3.33;100.00
36378;BME280;22402;42.746;23.606;2024-02-04T01:23:53;93799.56;;;3.26;100.00
36378;BME280;22402;42.746;23.606;2024-02-04T01:26:18;93807.50;;;3.23;100.00
36378;BME280;22402;42.746;23.606;2024-02-04T01:28:44;93799.19;;;3.17;100.00
36378;BME280;22402;42.746;23.606;2024-02-04T01:31:09;93789.91;;;3.15;100.00
36378;BME280;22402;42.746;23.606;2024-02-04T01:33:35;93798.66;;;3.12;100.00
36378;BME280;22402;42.746;23.606;2024-02-04T01:36:01;93808.88;;;3.14;100.00
36378;BME280;22402;42.746;23.606;2024-02-04T01:38:26;93794.03;;;3.03;100.00
36378;BME280;22402;42.746;23.606;2024-02-04T01:40:51;93796.34;;;2.93;100.00
36378;BME280;22402;42.746;23.606;2024-02-04T01:43:19;93795.94;;;2.85;100.00
36378;BME280;22402;42.746;23.606;2024-02-04T01:45:47;93802.97;;;2.83;100.00
36378;BME280;22402;42.746;23.606;2024-02-04T01:48:13;93792.34;;;2.73;100.00
36378;BME280;22402;42.746;23.606;2024-02-04T01:50:41;93788.41;;;2.68;100.00
36378;BME280;22402;42.746;23.606;2024-02-04T01:53:06;93795.44;;;2.64;100.00
36378;BME280;22402;42.746;23.606;2024-02-04T01:55:32;93801.63;;;2.62;100.00
36378;BME280;22402;42.746;23.606;2024-02-04T01:57:58;93793.88;;;2.47;100.00
36378;BME280;22402;42.746;23.606;2024-02-04T02:00:23;93783.34;;;2.36;100.00
36378;BME280;22402;42.746;23.606;2024-02-04T02:02:49;93788.84;;;2.30;100.00
36378;BME280;22402;42.746;23.606;2024-02-04T02:05:16;93779.06;;;2.21;100.00
36378;BME280;22402;42.746;23.606;2024-02-04T02:07:42;93756.84;;;2.04;100.00
36378;BME280;22402;42.746;23.606;2024-02-04T02:10:10;93768.56;;;2.10;100.00
36378;BME280;22402;42.746;23.606;2024-02-04T02:12:43;93780.31;;;2.14;100.00
36378;BME280;22402;42.746;23.606;2024-02-04T02:15:20;93777.44;;;2.04;100.00
36378;BME280;22402;42.746;23.606;2024-02-04T02:22:58;93785.53;;;2.28;100.00
36378;BME280;22402;42.746;23.606;2024-02-04T02:25:31;93785.09;;;2.36;100.00
36378;BME280;22402;42.746;23.606;2024-02-04T02:27:56;93769.31;;;2.42;100.00
36378;BME280;22402;42.746;23.606;2024-02-04T02:30:22;93762.69;;;2.52;100.00
36378;BME280;22402;42.746;23.606;2024-02-04T02:32:48;93781.97;;;2.75;100.00
36378;BME280;22402;42.746;23.606;2024-02-04T02:35:18;93773.25;;;2.78;100.00
36378;BME280;22402;42.746;23.606;2024-02-04T02:37:49;93761.56;;;2.86;100.00
36378;BME280;22402;42.746;23.606;2024-02-04T02:40:21;93783.53;;;3.06;100.00
36378;BME280;22402;42.746;23.606;2024-02-04T02:42:48;93778.88;;;3.13;100.00
36378;BME280;22402;42.746;23.606;2024-02-04T02:45:18;93767.38;;;3.18;100.00
36378;BME280;22402;42.746;23.606;2024-02-04T02:47:46;93774.00;;;3.23;100.00
36378;BME280;22402;42.746;23.606;2024-02-04T02:50:13;93777.41;;;3.37;100.00
36378;BME280;22402;42.746;23.606;2024-02-04T02:52:39;93782.81;;;3.47;100.00
36378;BME280;22402;42.746;23.606;2024-02-04T02:55:04;93765.78;;;3.45;100.00
36378;BME280;22402;42.746;23.606;2024-02-04T02:57:30;93772.13;;;3.53;100.00
36378;BME280;22402;42.746;23.606;2024-02-04T02:59:56;93767.25;;;3.63;100.00
36378;BME280;22402;42.746;23.606;2024-02-04T03:02:21;93776.78;;;3.75;100.00
36378;BME280;22402;42.746;23.606;2024-02-04T03:04:47;93765.75;;;3.73;100.00
36378;BME280;22402;42.746;23.606;2024-02-04T03:07:13;93776.03;;;3.87;100.00
36378;BME280;22402;42.746;23.606;2024-02-04T03:09:38;93762.56;;;3.82;100.00
36378;BME280;22402;42.746;23.606;2024-02-04T03:12:04;93771.56;;;3.89;100.00
36378;BME280;22402;42.746;23.606;2024-02-04T03:14:30;93773.06;;;3.94;100.00
36378;BME280;22402;42.746;23.606;2024-02-04T03:16:56;93778.56;;;4.02;100.00
36378;BME280;22402;42.746;23.606;2024-02-04T03:19:22;93741.13;;;3.82;100.00
36378;BME280;22402;42.746;23.606;2024-02-04T03:21:47;93772.28;;;4.06;100.00
36378;BME280;22402;42.746;23.606;2024-02-04T03:24:13;93766.19;;;4.07;100.00
36378;BME280;22402;42.746;23.606;2024-02-04T03:26:39;93745.94;;;4.01;100.00
36378;BME280;22402;42.746;23.606;2024-02-04T03:29:04;93752.66;;;4.03;100.00
36378;BME280;22402;42.746;23.606;2024-02-04T03:31:31;93751.16;;;4.14;100.00
36378;BME280;22402;42.746;23.606;2024-02-04T03:33:57;93758.16;;;4.11;100.00
36378;BME280;22402;42.746;23.606;2024-02-04T03:36:24;93750.69;;;4.07;100.00
36378;BME280;22402;42.746;23.606;2024-02-04T03:38:50;93762.16;;;4.03;100.00
36378;BME280;22402;42.746;23.606;2024-02-04T03:41:18;93752.41;;;3.94;100.00
36378;BME280;22402;42.746;23.606;2024-02-04T03:43:44;93749.09;;;3.92;100.00
36378;BME280;22402;42.746;23.606;2024-02-04T03:46:14;93754.25;;;3.92;100.00
36378;BME280;22402;42.746;23.606;2024-02-04T03:48:40;93758.31;;;3.96;100.00
36378;BME280;22402;42.746;23.606;2024-02-04T03:51:05;93738.59;;;3.95;100.00
36378;BME280;22402;42.746;23.606;2024-02-04T03:53:31;93728.47;;;3.92;100.00
36378;BME280;22402;42.746;23.606;2024-02-04T03:55:57;93731.44;;;3.85;100.00
36378;BME280;22402;42.746;23.606;2024-02-04T03:58:23;93708.25;;;3.71;100.00
36378;BME280;22402;42.746;23.606;2024-02-04T04:00:55;93734.13;;;3.84;100.00
36378;BME280;22402;42.746;23.606;2024-02-04T04:03:21;93722.91;;;3.71;100.00
36378;BME280;22402;42.746;23.606;2024-02-04T04:05:47;93739.56;;;3.79;100.00
36378;BME280;22402;42.746;23.606;2024-02-04T04:08:13;93734.97;;;3.70;100.00
36378;BME280;22402;42.746;23.606;2024-02-04T04:10:38;93726.69;;;3.65;100.00
36378;BME280;22402;42.746;23.606;2024-02-04T04:13:06;93740.50;;;3.78;100.00
36378;BME280;22402;42.746;23.606;2024-02-04T04:15:32;93732.41;;;3.70;100.00
36378;BME280;22402;42.746;23.606;2024-02-04T04:18:01;93733.84;;;3.74;100.00
36378;BME280;22402;42.746;23.606;2024-02-04T04:20:26;93740.31;;;3.81;100.00
36378;BME280;22402;42.746;23.606;2024-02-04T04:22:52;93744.44;;;3.84;100.00
36378;BME280;22402;42.746;23.606;2024-02-04T04:25:18;93726.84;;;3.76;100.00
36378;BME280;22402;42.746;23.606;2024-02-04T04:27:44;93722.06;;;3.84;100.00
36378;BME280;22402;42.746;23.606;2024-02-04T04:30:10;93711.78;;;3.70;100.00
36378;BME280;22402;42.746;23.606;2024-02-04T04:32:35;93709.19;;;3.70;100.00
36378;BME280;22402;42.746;23.606;2024-02-04T04:35:01;93737.88;;;3.93;100.00
36378;BME280;22402;42.746;23.606;2024-02-04T04:37:26;93728.78;;;3.87;100.00
36378;BME280;22402;42.746;23.606;2024-02-04T04:39:52;93741.72;;;4.00;100.00
36378;BME280;22402;42.746;23.606;2024-02-04T04:42:17;93739.31;;;3.97;100.00
36378;BME280;22402;42.746;23.606;2024-02-04T04:44:42;93749.06;;;4.06;100.00
36378;BME280;22402;42.746;23.606;2024-02-04T04:47:08;93721.53;;;3.92;100.00
36378;BME280;22402;42.746;23.606;2024-02-04T04:49:34;93725.88;;;3.92;100.00
36378;BME280;22402;42.746;23.606;2024-02-04T04:51:59;93734.06;;;3.98;100.00
36378;BME280;22402;42.746;23.606;2024-02-04T04:54:25;93748.22;;;4.05;100.00
36378;BME280;22402;42.746;23.606;2024-02-04T04:56:52;93713.72;;;3.94;100.00
36378;BME280;22402;42.746;23.606;2024-02-04T04:59:17;93735.03;;;4.10;100.00
36378;BME280;22402;42.746;23.606;2024-02-04T05:01:47;93746.00;;;4.14;100.00
36378;BME280;22402;42.746;23.606;2024-02-04T05:04:12;93755.06;;;4.19;100.00
36378;BME280;22402;42.746;23.606;2024-02-04T05:06:38;93720.88;;;4.03;100.00
36378;BME280;22402;42.746;23.606;2024-02-04T05:09:04;93742.16;;;4.19;100.00
36378;BME280;22402;42.746;23.606;2024-02-04T05:11:29;93734.22;;;4.22;100.00
36378;BME280;22402;42.746;23.606;2024-02-04T05:13:54;93723.25;;;4.06;100.00
36378;BME280;22402;42.746;23.606;2024-02-04T05:16:20;93738.56;;;4.22;100.00
36378;BME280;22402;42.746;23.606;2024-02-04T05:18:45;93741.06;;;4.23;100.00
36378;BME280;22402;42.746;23.606;2024-02-04T05:21:11;93740.88;;;4.26;100.00
36378;BME280;22402;42.746;23.606;2024-02-04T05:23:37;93732.25;;;4.13;100.00
36378;BME280;22402;42.746;23.606;2024-02-04T05:26:06;93749.00;;;4.20;100.00
36378;BME280;22402;42.746;23.606;2024-02-04T05:28:32;93737.41;;;4.13;100.00
36378;BME280;22402;42.746;23.606;2024-02-04T05:34:04;93766.13;;;4.21;100.00
36378;BME280;22402;42.746;23.606;2024-02-04T05:36:30;93765.59;;;4.16;100.00
36378;BME280;22402;42.746;23.606;2024-02-04T05:38:55;93757.34;;;4.11;100.00
36378;BME280;22402;42.746;23.606;2024-02-04T05:41:21;93757.53;;;4.08;100.00
36378;BME280;22402;42.746;23.606;2024-02-04T05:43:46;93764.72;;;4.03;100.00
36378;BME280;22402;42.746;23.606;2024-02-04T05:46:13;93753.88;;;3.98;100.00
36378;BME280;22402;42.746;23.606;2024-02-04T05:48:39;93761.59;;;3.98;100.00
36378;BME280;22402;42.746;23.606;2024-02-04T05:51:05;93762.44;;;3.98;100.00
36378;BME280;22402;42.746;23.606;2024-02-04T05:53:31;93757.19;;;4.00;100.00
36378;BME280;22402;42.746;23.606;2024-02-04T05:55:57;93769.25;;;3.99;100.00
36378;BME280;22402;42.746;23.606;2024-02-04T05:58:22;93772.75;;;3.98;100.00
36378;BME280;22402;42.746;23.606;2024-02-04T06:00:48;93775.25;;;4.00;100.00
36378;BME280;22402;42.746;23.606;2024-02-04T06:03:13;93776.19;;;3.99;100.00
36378;BME280;22402;42.746;23.606;2024-02-04T06:05:39;93771.03;;;3.99;100.00
36378;BME280;22402;42.746;23.606;2024-02-04T06:08:05;93766.75;;;3.98;100.00
36378;BME280;22402;42.746;23.606;2024-02-04T06:10:31;93770.28;;;3.97;100.00
36378;BME280;22402;42.746;23.606;2024-02-04T06:12:57;93776.38;;;3.96;100.00
36378;BME280;22402;42.746;23.606;2024-02-04T06:15:22;93775.44;;;3.97;100.00
36378;BME280;22402;42.746;23.606;2024-02-04T06:17:48;93776.88;;;4.01;100.00
36378;BME280;22402;42.746;23.606;2024-02-04T06:20:14;93787.03;;;4.04;100.00
36378;BME280;22402;42.746;23.606;2024-02-04T06:22:39;93781.56;;;4.08;100.00
36378;BME280;22402;42.746;23.606;2024-02-04T06:25:05;93786.22;;;4.16;100.00
36378;BME280;22402;42.746;23.606;2024-02-04T06:27:31;93795.25;;;4.23;100.00
36378;BME280;22402;42.746;23.606;2024-02-04T06:29:57;93800.78;;;4.31;100.00
36378;BME280;22402;42.746;23.606;2024-02-04T06:32:22;93803.66;;;4.40;100.00
36378;BME280;22402;42.746;23.606;2024-02-04T06:34:49;93799.56;;;4.50;100.00
36378;BME280;22402;42.746;23.606;2024-02-04T06:37:16;93804.16;;;4.59;100.00
36378;BME280;22402;42.746;23.606;2024-02-04T06:39:42;93812.94;;;4.69;100.00
36378;BME280;22402;42.746;23.606;2024-02-04T06:42:07;93815.44;;;4.84;100.00
36378;BME280;22402;42.746;23.606;2024-02-04T06:44:32;93815.38;;;4.98;100.00
36378;BME280;22402;42.746;23.606;2024-02-04T06:46:58;93822.81;;;5.15;100.00
36378;BME280;22402;42.746;23.606;2024-02-04T06:49:24;93817.44;;;5.31;100.00
36378;BME280;22402;42.746;23.606;2024-02-04T06:51:49;93821.34;;;5.49;100.00
36378;BME280;22402;42.746;23.606;2024-02-04T06:54:16;93819.69;;;5.61;100.00
36378;BME280;22402;42.746;23.606;2024-02-04T06:56:41;93812.03;;;5.72;100.00
36378;BME280;22402;42.746;23.606;2024-02-04T06:59:06;93814.78;;;5.82;99.07
36378;BME280;22402;42.746;23.606;2024-02-04T07:01:32;93816.56;;;5.94;98.90
36378;BME280;22402;42.746;23.606;2024-02-04T07:03:58;93813.22;;;6.05;97.89
36378;BME280;22402;42.746;23.606;2024-02-04T07:06:23;93810.94;;;6.13;97.13
36378;BME280;22402;42.746;23.606;2024-02-04T07:08:49;93812.13;;;6.21;96.29
36378;BME280;22402;42.746;23.606;2024-02-04T07:11:15;93818.53;;;6.28;95.20
36378;BME280;22402;42.746;23.606;2024-02-04T07:13:41;93817.25;;;6.33;95.27
36378;BME280;22402;42.746;23.606;2024-02-04T07:16:06;93829.16;;;6.36;94.81
36378;BME280;22402;42.746;23.606;2024-02-04T07:18:31;93833.81;;;6.44;94.27
36378;BME280;22402;42.746;23.606;2024-02-04T07:20:57;93825.16;;;6.56;94.18
36378;BME280;22402;42.746;23.606;2024-02-04T07:23:23;93819.78;;;6.70;93.23
36378;BME280;22402;42.746;23.606;2024-02-04T07:25:48;93828.44;;;6.82;92.31
36378;BME280;22402;42.746;23.606;2024-02-04T07:28:14;93823.16;;;6.95;92.16
36378;BME280;22402;42.746;23.606;2024-02-04T07:30:39;93836.53;;;7.13;91.63
36378;BME280;22402;42.746;23.606;2024-02-04T07:33:05;93832.78;;;7.28;90.39
36378;BME280;22402;42.746;23.606;2024-02-04T07:35:30;93835.91;;;7.44;89.85
36378;BME280;22402;42.746;23.606;2024-02-04T07:37:56;93832.38;;;7.57;89.49
36378;BME280;22402;42.746;23.606;2024-02-04T07:40:21;93829.44;;;7.95;88.44
36378;BME280;22402;42.746;23.606;2024-02-04T07:42:47;93826.03;;;8.38;86.65
36378;BME280;22402;42.746;23.606;2024-02-04T07:45:13;93829.41;;;8.72;84.44
36378;BME280;22402;42.746;23.606;2024-02-04T07:47:38;93815.88;;;8.89;83.33
36378;BME280;22402;42.746;23.606;2024-02-04T07:50:04;93830.47;;;9.02;82.02
36378;BME280;22402;42.746;23.606;2024-02-04T07:52:31;93827.66;;;8.94;81.72
36378;BME280;22402;42.746;23.606;2024-02-04T07:54:56;93817.78;;;8.87;81.20
36378;BME280;22402;42.746;23.606;2024-02-04T07:57:21;93816.00;;;8.88;81.77
36378;BME280;22402;42.746;23.606;2024-02-04T07:59:47;93816.91;;;9.19;82.78
36378;BME280;22402;42.746;23.606;2024-02-04T08:02:12;93820.72;;;9.88;80.58
36378;BME280;22402;42.746;23.606;2024-02-04T08:04:40;93825.03;;;10.58;78.16
36378;BME280;22402;42.746;23.606;2024-02-04T08:07:06;93825.75;;;10.99;75.28
36378;BME280;22402;42.746;23.606;2024-02-04T08:09:32;93828.06;;;11.31;74.16
36378;BME280;22402;42.746;23.606;2024-02-04T08:12:00;93823.41;;;11.35;71.97
36378;BME280;22402;42.746;23.606;2024-02-04T08:14:25;93819.56;;;11.20;72.63
36378;BME280;22402;42.746;23.606;2024-02-04T08:16:51;93818.34;;;11.04;72.31
36378;BME280;22402;42.746;23.606;2024-02-04T08:19:16;93818.31;;;10.94;73.36
36378;BME280;22402;42.746;23.606;2024-02-04T08:21:42;93819.84;;;10.97;73.56
36378;BME280;22402;42.746;23.606;2024-02-04T08:24:07;93806.53;;;11.10;73.65
36378;BME280;22402;42.746;23.606;2024-02-04T08:26:32;93817.78;;;11.39;73.53
36378;BME280;22402;42.746;23.606;2024-02-04T08:28:59;93816.75;;;11.60;72.37
36378;BME280;22402;42.746;23.606;2024-02-04T08:31:24;93814.94;;;11.70;72.51
36378;BME280;22402;42.746;23.606;2024-02-04T08:33:50;93813.59;;;11.66;71.91
36378;BME280;22402;42.746;23.606;2024-02-04T08:36:16;93807.44;;;11.57;72.02
36378;BME280;22402;42.746;23.606;2024-02-04T08:38:42;93812.66;;;11.48;72.03
36378;BME280;22402;42.746;23.606;2024-02-04T08:41:07;93807.31;;;11.30;72.75
36378;BME280;22402;42.746;23.606;2024-02-04T08:43:32;93808.44;;;11.08;73.84
36378;BME280;22402;42.746;23.606;2024-02-04T08:45:58;93812.84;;;10.88;74.03
36378;BME280;22402;42.746;23.606;2024-02-04T08:48:23;93811.59;;;10.72;75.11
36378;BME280;22402;42.746;23.606;2024-02-04T08:50:49;93814.47;;;10.60;76.04
36378;BME280;22402;42.746;23.606;2024-02-04T08:53:14;93815.69;;;10.46;76.64
36378;BME280;22402;42.746;23.606;2024-02-04T08:55:39;93813.88;;;10.37;77.46
36378;BME280;22402;42.746;23.606;2024-02-04T08:58:05;93818.94;;;10.29;77.21
36378;BME280;22402;42.746;23.606;2024-02-04T09:00:31;93818.63;;;10.22;77.87
36378;BME280;22402;42.746;23.606;2024-02-04T09:02:56;93808.34;;;10.20;78.44
36378;BME280;22402;42.746;23.606;2024-02-04T09:05:22;93807.84;;;10.36;78.49
36378;BME280;22402;42.746;23.606;2024-02-04T09:07:50;93816.97;;;10.71;78.02
36378;BME280;22402;42.746;23.606;2024-02-04T09:10:16;93807.63;;;11.07;76.07
36378;BME280;22402;42.746;23.606;2024-02-04T09:12:42;93802.94;;;11.30;76.13
36378;BME280;22402;42.746;23.606;2024-02-04T09:15:08;93816.38;;;11.45;74.85
36378;BME280;22402;42.746;23.606;2024-02-04T09:17:33;93822.97;;;11.49;74.78
36378;BME280;22402;42.746;23.606;2024-02-04T09:19:59;93816.47;;;11.53;74.37
36378;BME280;22402;42.746;23.606;2024-02-04T09:22:25;93819.06;;;11.73;74.39
36378;BME280;22402;42.746;23.606;2024-02-04T09:24:51;93815.97;;;11.97;73.46
36378;BME280;22402;42.746;23.606;2024-02-04T09:27:16;93814.88;;;11.99;72.68
36378;BME280;22402;42.746;23.606;2024-02-04T09:29:42;93805.00;;;11.83;73.75
36378;BME280;22402;42.746;23.606;2024-02-04T09:32:07;93816.06;;;11.58;74.17
36378;BME280;22402;42.746;23.606;2024-02-04T09:34:33;93811.03;;;11.37;75.05
36378;BME280;22402;42.746;23.606;2024-02-04T09:36:58;93813.66;;;11.37;76.59
36378;BME280;22402;42.746;23.606;2024-02-04T09:39:24;93807.22;;;11.88;76.34
36378;BME280;22402;42.746;23.606;2024-02-04T09:41:49;93805.16;;;12.47;74.33
36378;BME280;22402;42.746;23.606;2024-02-04T09:44:15;93812.22;;;12.64;71.70
36378;BME280;22402;42.746;23.606;2024-02-04T09:46:41;93804.69;;;12.51;71.96
36378;BME280;22402;42.746;23.606;2024-02-04T09:49:08;93806.34;;;12.25;71.92
36378;BME280;22402;42.746;23.606;2024-02-04T09:51:34;93813.78;;;11.92;73.32
36378;BME280;22402;42.746;23.606;2024-02-04T09:54:04;93813.72;;;11.64;74.06
36378;BME280;22402;42.746;23.606;2024-02-04T09:56:32;93815.41;;;11.46;75.53
36378;BME280;22402;42.746;23.606;2024-02-04T09:58:58;93814.22;;;11.31;76.44
36378;BME280;22402;42.746;23.606;2024-02-04T10:01:24;93807.19;;;11.12;77.11
36378;BME280;22402;42.746;23.606;2024-02-04T10:03:50;93803.91;;;11.00;77.63
36378;BME280;22402;42.746;23.606;2024-02-04T10:06:15;93803.81;;;10.92;77.75
36378;BME280;22402;42.746;23.606;2024-02-04T10:08:41;93795.00;;;10.83;77.95
36378;BME280;22402;42.746;23.606;2024-02-04T10:11:09;93801.88;;;10.84;78.78
36378;BME280;22402;42.746;23.606;2024-02-04T10:13:47;93807.63;;;10.88;78.38
36378;BME280;22402;42.746;23.606;2024-02-04T10:16:13;93799.41;;;10.92;78.21
36378;BME280;22402;42.746;23.606;2024-02-04T10:18:46;93795.16;;;11.01;77.56
36378;BME280;22402;42.746;23.606;2024-02-04T10:21:18;93804.88;;;11.18;77.03
36378;BME280;22402;42.746;23.606;2024-02-04T10:23:45;93806.91;;;11.34;76.28
36378;BME280;22402;42.746;23.606;2024-02-04T10:26:11;93802.06;;;11.49;75.60
36378;BME280;22402;42.746;23.606;2024-02-04T10:28:37;93807.13;;;11.60;74.90
36378;BME280;22402;42.746;23.606;2024-02-04T10:31:03;93806.56;;;11.67;74.20
36378;BME280;22402;42.746;23.606;2024-02-04T10:33:31;93797.75;;;11.68;73.78
36378;BME280;22402;42.746;23.606;2024-02-04T10:35:57;93800.66;;;11.64;74.05
36378;BME280;22402;42.746;23.606;2024-02-04T10:38:22;93801.50;;;11.55;74.85
36378;BME280;22402;42.746;23.606;2024-02-04T10:40:53;93798.25;;;11.44;75.53
36378;BME280;22402;42.746;23.606;2024-02-04T10:43:18;93799.50;;;11.30;76.14
36378;BME280;22402;42.746;23.606;2024-02-04T10:45:46;93800.88;;;11.14;77.57
36378;BME280;22402;42.746;23.606;2024-02-04T10:48:15;93795.25;;;11.00;78.50
36378;BME280;22402;42.746;23.606;2024-02-04T10:50:46;93802.41;;;10.88;78.72
36378;BME280;22402;42.746;23.606;2024-02-04T10:53:14;93803.22;;;10.79;78.98
36378;BME280;22402;42.746;23.606;2024-02-04T10:55:47;93796.09;;;10.71;79.55
36378;BME280;22402;42.746;23.606;2024-02-04T10:58:15;93790.03;;;10.61;80.32
36378;BME280;22402;42.746;23.606;2024-02-04T11:00:43;93791.13;;;10.58;80.78
36378;BME280;22402;42.746;23.606;2024-02-04T11:03:08;93791.41;;;10.55;80.71
36378;BME280;22402;42.746;23.606;2024-02-04T11:05:36;93786.06;;;10.47;81.00
36378;BME280;22402;42.746;23.606;2024-02-04T11:08:03;93787.00;;;10.36;82.11
36378;BME280;22402;42.746;23.606;2024-02-04T11:10:29;93783.66;;;10.24;83.14
36378;BME280;22402;42.746;23.606;2024-02-04T11:12:55;93786.09;;;10.16;84.23
36378;BME280;22402;42.746;23.606;2024-02-04T11:15:25;93772.63;;;10.11;84.73
36378;BME280;22402;42.746;23.606;2024-02-04T11:18:11;93773.22;;;10.24;85.11
36378;BME280;22402;42.746;23.606;2024-02-04T11:26:41;93763.69;;;10.44;82.26
36378;BME280;22402;42.746;23.606;2024-02-04T11:29:07;93762.84;;;10.44;81.60
36378;BME280;22402;42.746;23.606;2024-02-04T11:31:33;93759.31;;;10.45;82.35
36378;BME280;22402;42.746;23.606;2024-02-04T11:34:00;93756.56;;;10.56;82.10
36378;BME280;22402;42.746;23.606;2024-02-04T11:36:26;93752.84;;;11.07;81.46
36378;BME280;22402;42.746;23.606;2024-02-04T11:38:52;93755.25;;;11.85;79.07
36378;BME280;22402;42.746;23.606;2024-02-04T11:41:24;93744.91;;;12.39;76.14
36378;BME280;22402;42.746;23.606;2024-02-04T11:43:55;93740.00;;;12.53;73.51
36378;BME280;22402;42.746;23.606;2024-02-04T11:46:21;93743.13;;;12.39;73.08
36378;BME280;22402;42.746;23.606;2024-02-04T11:48:53;93749.72;;;12.16;73.53
36378;BME280;22402;42.746;23.606;2024-02-04T11:51:22;93749.75;;;11.88;73.79
36378;BME280;22402;42.746;23.606;2024-02-04T11:53:50;93737.28;;;11.62;74.64
36378;BME280;22402;42.746;23.606;2024-02-04T11:56:17;93721.53;;;11.54;75.23
36378;BME280;22402;42.746;23.606;2024-02-04T11:58:43;93730.16;;;11.64;75.68
36378;BME280;22402;42.746;23.606;2024-02-04T12:01:12;93739.72;;;11.74;75.71
36378;BME280;22402;42.746;23.606;2024-02-04T12:03:38;93741.66;;;11.72;75.42
36378;BME280;22402;42.746;23.606;2024-02-04T12:06:04;93735.66;;;11.61;74.15
36378;BME280;22402;42.746;23.606;2024-02-04T12:08:32;93719.59;;;11.56;74.41
36378;BME280;22402;42.746;23.606;2024-02-04T12:10:57;93699.22;;;11.60;75.26
36378;BME280;22402;42.746;23.606;2024-02-04T12:13:24;93715.16;;;12.22;74.90
36378;BME280;22402;42.746;23.606;2024-02-04T12:15:50;93716.59;;;12.52;72.13
36378;BME280;22402;42.746;23.606;2024-02-04T12:18:16;93722.66;;;12.52;71.79
36378;BME280;22402;42.746;23.606;2024-02-04T12:20:46;93725.63;;;12.40;72.02
36378;BME280;22402;42.746;23.606;2024-02-04T12:23:12;93722.94;;;12.14;73.07
36378;BME280;22402;42.746;23.606;2024-02-04T12:25:38;93720.03;;;11.79;73.10
36378;BME280;22402;42.746;23.606;2024-02-04T12:28:04;93707.91;;;11.60;73.94
36378;BME280;22402;42.746;23.606;2024-02-04T12:30:31;93708.22;;;11.48;75.09
36378;BME280;22402;42.746;23.606;2024-02-04T12:33:04;93699.84;;;11.44;75.78
36378;BME280;22402;42.746;23.606;2024-02-04T12:35:30;93693.59;;;11.64;75.38
36378;BME280;22402;42.746;23.606;2024-02-04T12:37:58;93695.75;;;12.24;74.22
36378;BME280;22402;42.746;23.606;2024-02-04T12:40:30;93694.16;;;13.03;71.40
36378;BME280;22402;42.746;23.606;2024-02-04T12:42:58;93695.22;;;14.13;68.01
36378;BME280;22402;42.746;23.606;2024-02-04T12:45:25;93695.31;;;14.87;64.86
36378;BME280;22402;42.746;23.606;2024-02-04T12:47:57;93691.41;;;14.91;62.56
36378;BME280;22402;42.746;23.606;2024-02-04T12:50:29;93683.84;;;14.71;63.20
36378;BME280;22402;42.746;23.606;2024-02-04T12:53:05;93676.31;;;14.52;63.24
36378;BME280;22402;42.746;23.606;2024-02-04T12:55:32;93685.59;;;14.38;63.14
36378;BME280;22402;42.746;23.606;2024-02-04T12:58:09;93680.28;;;14.13;63.86
36378;BME280;22402;42.746;23.606;2024-02-04T13:00:37;93687.56;;;13.77;64.97